createdAt,value
2022-09-09T00:01:15.179Z,9.45
2022-09-09T00:03:52.283Z,9.23
2022-09-09T00:06:31.000Z,9.35
2022-09-09T00:09:03.242Z,9.18
2022-09-09T00:11:41.236Z,11.80
2022-09-09T00:14:46.418Z,7.90
2022-09-09T00:22:35.316Z,9.55
2022-09-09T00:25:12.041Z,9.45
2022-09-09T00:27:47.602Z,12.77
2022-09-09T00:30:23.454Z,9.77
2022-09-09T00:32:55.100Z,9.43
2022-09-09T00:35:35.074Z,8.02
2022-09-09T00:38:11.615Z,9.02
2022-09-09T00:40:46.332Z,10.95
2022-09-09T00:43:31.097Z,9.68
2022-09-09T00:46:15.744Z,9.10
2022-09-09T00:49:04.070Z,10.35
2022-09-09T00:51:51.145Z,10.45
2022-09-09T00:54:28.859Z,9.30
2022-09-09T00:57:05.526Z,10.40
2022-09-09T00:59:51.158Z,11.23
2022-09-09T01:02:29.696Z,9.02
2022-09-09T01:05:06.567Z,9.60
2022-09-09T01:07:33.360Z,10.57
2022-09-09T01:10:04.823Z,10.00
2022-09-09T01:12:43.114Z,12.07
2022-09-09T01:15:22.596Z,10.02
2022-09-09T01:18:10.295Z,11.23
2022-09-09T01:21:06.706Z,10.23
2022-09-09T01:24:01.823Z,9.68
2022-09-09T01:26:36.546Z,9.93
2022-09-09T01:29:14.268Z,9.32
2022-09-09T01:31:53.013Z,9.23
2022-09-09T01:34:22.042Z,8.63
2022-09-09T01:37:06.674Z,10.40
2022-09-09T01:39:35.894Z,10.38
2022-09-09T01:42:08.807Z,8.65
2022-09-09T01:44:36.724Z,10.05
2022-09-09T01:47:04.387Z,8.93
2022-09-09T01:49:31.893Z,9.30
2022-09-09T01:51:58.753Z,7.90
2022-09-09T01:54:34.353Z,8.73
2022-09-09T01:57:23.971Z,9.02
2022-09-09T02:00:07.814Z,10.10
2022-09-09T02:03:05.912Z,9.57
2022-09-09T02:06:06.441Z,9.25
2022-09-09T02:08:51.393Z,9.82
2022-09-09T02:11:20.411Z,8.52
2022-09-09T02:14:04.269Z,7.82
2022-09-09T02:16:38.829Z,9.68
2022-09-09T02:19:18.049Z,8.15
2022-09-09T02:22:00.855Z,9.65
2022-09-09T02:24:30.846Z,8.25
2022-09-09T02:27:10.836Z,8.45
2022-09-09T02:29:43.275Z,7.57
2022-09-09T02:32:15.997Z,8.55
2022-09-09T02:34:49.893Z,7.38
2022-09-09T02:37:21.024Z,8.20
2022-09-09T02:39:51.867Z,8.00
2022-09-09T02:42:20.964Z,9.13
2022-09-09T02:44:48.040Z,8.73
2022-09-09T02:47:29.544Z,7.75
2022-09-09T02:50:23.511Z,8.27
2022-09-09T02:53:08.529Z,9.00
2022-09-09T02:55:46.653Z,8.00
2022-09-09T02:58:17.896Z,8.32
2022-09-09T03:00:52.092Z,8.73
2022-09-09T03:03:21.207Z,10.93
2022-09-09T03:05:50.345Z,8.02
2022-09-09T03:08:17.074Z,10.07
2022-09-09T03:10:44.669Z,10.40
2022-09-09T03:13:16.127Z,8.07
2022-09-09T03:15:43.259Z,9.02
2022-09-09T03:18:14.810Z,7.93
2022-09-09T03:20:43.020Z,9.27
2022-09-09T03:23:15.523Z,10.85
2022-09-09T03:25:50.191Z,8.70
2022-09-09T03:28:21.566Z,9.30
2022-09-09T03:30:49.352Z,9.13
2022-09-09T03:33:17.169Z,8.68
2022-09-09T03:35:49.759Z,9.80
2022-09-09T03:38:18.641Z,7.35
2022-09-09T03:40:56.057Z,8.27
2022-09-09T03:43:24.091Z,7.45
2022-09-09T03:45:53.207Z,8.00
2022-09-09T03:48:20.544Z,8.20
2022-09-09T03:50:48.606Z,11.20
2022-09-09T03:53:16.728Z,9.32
2022-09-09T03:55:53.575Z,11.75
2022-09-09T03:58:19.997Z,9.68
2022-09-09T04:00:55.224Z,8.77
2022-09-09T04:03:27.235Z,9.27
2022-09-09T04:05:56.189Z,9.50
2022-09-09T04:08:26.307Z,9.85
2022-09-09T04:10:54.499Z,9.55
2022-09-09T04:13:21.031Z,8.18
2022-09-09T04:15:56.565Z,8.07
2022-09-09T04:18:24.530Z,8.55
2022-09-09T04:20:52.468Z,8.68
2022-09-09T04:23:21.907Z,9.52
2022-09-09T04:25:53.466Z,9.27
2022-09-09T04:28:22.378Z,7.97
2022-09-09T04:30:49.951Z,7.40
2022-09-09T04:33:18.276Z,8.60
2022-09-09T04:35:47.960Z,8.30
2022-09-09T04:38:16.511Z,7.72
2022-09-09T04:40:47.471Z,8.27
2022-09-09T04:43:15.585Z,8.25
2022-09-09T04:45:44.858Z,8.32
2022-09-09T04:48:11.350Z,9.75
2022-09-09T04:50:37.843Z,7.25
2022-09-09T04:53:06.099Z,7.70
2022-09-09T04:55:35.948Z,8.82
2022-09-09T04:58:06.836Z,8.68
2022-09-09T05:00:34.773Z,8.57
2022-09-09T05:03:06.872Z,7.32
2022-09-09T05:05:37.358Z,6.63
2022-09-09T05:08:06.501Z,8.57
2022-09-09T05:10:34.375Z,8.02
2022-09-09T05:13:00.869Z,8.30
2022-09-09T05:15:30.073Z,7.30
2022-09-09T05:18:01.519Z,5.90
2022-09-09T05:20:30.503Z,5.43
2022-09-09T05:22:57.633Z,7.57
2022-09-09T05:25:27.577Z,5.57
2022-09-09T05:27:55.357Z,7.05
2022-09-09T05:30:24.140Z,6.78
2022-09-09T05:32:51.580Z,4.85
2022-09-09T05:35:20.099Z,5.75
2022-09-09T05:37:47.016Z,6.35
2022-09-09T05:40:14.046Z,8.25
2022-09-09T05:42:41.413Z,5.07
2022-09-09T05:45:09.628Z,7.10
2022-09-09T05:47:38.170Z,7.18
2022-09-09T05:50:07.222Z,5.53
2022-09-09T05:52:33.958Z,5.53
2022-09-09T05:55:00.681Z,7.05
2022-09-09T05:57:27.113Z,6.53
2022-09-09T05:59:54.577Z,8.43
2022-09-09T06:02:21.095Z,6.47
2022-09-09T06:04:47.750Z,6.07
2022-09-09T06:07:15.465Z,5.45
2022-09-09T06:09:42.359Z,4.00
2022-09-09T06:12:09.877Z,4.45
2022-09-09T06:14:37.801Z,5.15
2022-09-09T06:17:04.599Z,7.53
2022-09-09T06:19:31.763Z,5.57
2022-09-09T06:21:59.651Z,7.90
2022-09-09T06:24:28.023Z,5.18
2022-09-09T06:26:54.943Z,7.40
2022-09-09T06:29:26.404Z,4.82
2022-09-09T06:31:53.413Z,4.35
2022-09-09T06:34:22.574Z,4.50
2022-09-09T06:36:53.026Z,5.20
2022-09-09T06:39:19.416Z,4.88
2022-09-09T06:41:46.483Z,3.55
2022-09-09T06:44:35.789Z,5.15
2022-09-09T06:47:04.366Z,5.10
2022-09-09T06:49:31.509Z,5.57
2022-09-09T06:51:58.127Z,6.25
2022-09-09T06:54:26.267Z,4.30
2022-09-09T06:56:53.635Z,6.45
2022-09-09T06:59:23.479Z,3.63
2022-09-09T07:01:56.005Z,4.15
2022-09-09T07:04:23.095Z,4.35
2022-09-09T07:06:49.603Z,5.47
2022-09-09T07:09:21.347Z,4.68
2022-09-09T07:11:53.714Z,4.97
2022-09-09T07:14:22.877Z,5.95
2022-09-09T07:16:59.970Z,6.55
2022-09-09T07:19:28.120Z,3.45
2022-09-09T07:21:55.795Z,5.35
2022-09-09T07:24:24.661Z,4.38
2022-09-09T07:26:52.981Z,4.68
2022-09-09T07:29:20.984Z,5.68
2022-09-09T07:31:49.353Z,5.78
2022-09-09T07:34:20.527Z,6.70
2022-09-09T07:36:47.656Z,4.55
2022-09-09T07:39:15.363Z,4.63
2022-09-09T07:41:48.951Z,4.68
2022-09-09T07:44:22.366Z,5.13
2022-09-09T07:46:51.911Z,6.80
2022-09-09T07:49:29.702Z,5.53
2022-09-09T07:52:00.058Z,5.97
2022-09-09T07:54:27.126Z,6.90
2022-09-09T07:56:53.851Z,4.38
2022-09-09T07:59:23.052Z,4.75
2022-09-09T08:01:56.152Z,6.10
2022-09-09T08:04:27.033Z,6.10
2022-09-09T08:06:58.314Z,7.97
2022-09-09T08:09:29.540Z,5.50
2022-09-09T08:12:13.949Z,5.88
2022-09-09T08:14:41.068Z,3.33
2022-09-09T08:17:07.490Z,5.18
2022-09-09T08:19:36.677Z,3.65
2022-09-09T08:22:08.595Z,4.55
2022-09-09T08:24:37.023Z,4.25
2022-09-09T08:27:03.551Z,4.57
2022-09-09T08:29:30.211Z,6.53
2022-09-09T08:32:00.571Z,3.88
2022-09-09T08:34:29.033Z,6.10
2022-09-09T08:36:57.186Z,5.22
2022-09-09T08:39:30.780Z,4.60
2022-09-09T08:42:14.586Z,4.55
2022-09-09T08:45:07.070Z,6.40
2022-09-09T08:47:40.677Z,3.60
2022-09-09T08:50:30.336Z,4.68
2022-09-09T08:53:25.967Z,5.80
2022-09-09T08:55:59.665Z,6.20
2022-09-09T08:58:41.420Z,4.50
2022-09-09T09:01:41.233Z,4.90
2022-09-09T09:04:39.171Z,5.53
2022-09-09T09:07:35.002Z,5.28
2022-09-09T09:10:41.853Z,4.90
2022-09-09T09:13:16.823Z,4.05
2022-09-09T09:15:47.197Z,4.72
2022-09-09T09:18:14.966Z,6.22
2022-09-09T09:21:07.542Z,4.85
2022-09-09T09:24:02.884Z,5.82
2022-09-09T09:26:36.202Z,4.85
2022-09-09T09:29:13.713Z,4.97
2022-09-09T09:31:44.899Z,5.95
2022-09-09T09:34:13.038Z,4.22
2022-09-09T09:36:52.997Z,6.47
2022-09-09T09:42:20.413Z,4.90
2022-09-09T09:44:50.999Z,6.38
2022-09-09T09:47:21.998Z,2.85
2022-09-09T09:50:19.927Z,5.15
2022-09-09T09:52:56.718Z,4.55
2022-09-09T09:55:25.031Z,4.13
2022-09-09T09:57:52.284Z,6.90
2022-09-09T10:00:23.922Z,5.30
2022-09-09T10:03:02.819Z,3.90
2022-09-09T10:05:36.880Z,3.67
2022-09-09T10:08:10.094Z,5.10
2022-09-09T10:10:59.588Z,5.05
2022-09-09T10:13:44.248Z,3.28
2022-09-09T10:16:40.610Z,7.60
2022-09-09T10:19:13.951Z,3.25
2022-09-09T10:21:49.150Z,5.97
2022-09-09T10:24:53.246Z,5.95
2022-09-09T10:27:42.259Z,6.07
2022-09-09T10:30:25.725Z,6.10
2022-09-09T10:33:16.965Z,5.57
2022-09-09T10:36:03.053Z,3.83
2022-09-09T10:38:39.639Z,5.05
2022-09-09T10:41:14.387Z,7.40
2022-09-09T10:44:11.237Z,3.08
2022-09-09T10:47:08.192Z,7.68
2022-09-09T10:50:07.106Z,6.03
2022-09-09T10:52:51.579Z,7.00
2022-09-09T10:57:53.081Z,7.18
2022-09-09T11:00:22.229Z,4.68
2022-09-09T11:03:08.343Z,5.55
2022-09-09T11:06:05.068Z,5.75
2022-09-09T11:08:34.419Z,6.18
2022-09-09T11:11:19.979Z,4.07
2022-09-09T11:13:52.551Z,4.75
2022-09-09T11:17:01.507Z,5.05
2022-09-09T11:19:42.243Z,2.90
2022-09-09T11:22:19.549Z,5.22
2022-09-09T11:24:53.710Z,5.22
2022-09-09T11:30:37.681Z,4.15
2022-09-09T11:33:34.286Z,2.97
2022-09-09T11:36:35.658Z,3.67
2022-09-09T11:39:31.214Z,5.70
2022-09-09T11:42:12.929Z,3.15
2022-09-09T11:44:39.538Z,4.50
2022-09-09T11:47:30.380Z,9.93
2022-09-09T11:50:20.057Z,13.15
2022-09-09T11:52:49.269Z,13.50
2022-09-09T11:55:30.537Z,12.15
2022-09-09T11:58:05.788Z,9.13
2022-09-09T12:00:47.945Z,9.05
2022-09-09T12:03:39.391Z,10.43
2022-09-09T12:06:20.978Z,8.40
2022-09-09T12:08:52.130Z,8.32
2022-09-09T12:11:29.391Z,6.78
2022-09-09T12:13:58.535Z,6.80
2022-09-09T12:16:39.292Z,9.20
2022-09-09T12:19:15.443Z,7.82
2022-09-09T12:22:19.466Z,5.57
2022-09-09T12:25:31.719Z,7.30
2022-09-09T12:28:05.515Z,5.55
2022-09-09T12:30:42.282Z,4.18
2022-09-09T12:33:14.173Z,7.93
2022-09-09T12:35:44.390Z,4.43
2022-09-09T12:38:20.704Z,7.10
2022-09-09T12:40:59.348Z,7.55
2022-09-09T12:43:28.572Z,5.88
2022-09-09T12:46:13.970Z,10.35
2022-09-09T12:48:45.399Z,5.00
2022-09-09T12:51:26.018Z,5.18
2022-09-09T12:53:53.010Z,6.10
2022-09-09T12:56:21.778Z,5.18
2022-09-09T12:58:52.531Z,6.25
2022-09-09T13:01:25.678Z,5.78
2022-09-09T13:03:53.488Z,4.33
2022-09-09T13:06:28.798Z,5.78
2022-09-09T13:09:00.970Z,5.18
2022-09-09T13:11:32.879Z,6.85
2022-09-09T13:14:00.244Z,5.15
2022-09-09T13:16:32.526Z,6.13
2022-09-09T13:19:02.595Z,6.30
2022-09-09T13:21:35.100Z,6.72
2022-09-09T13:24:04.240Z,6.68
2022-09-09T13:26:31.034Z,5.60
2022-09-09T13:29:18.849Z,5.38
2022-09-09T13:31:45.944Z,5.53
2022-09-09T13:34:30.409Z,5.78
2022-09-09T13:39:26.526Z,4.63
2022-09-09T13:41:54.025Z,6.57
2022-09-09T13:44:25.130Z,5.80
2022-09-09T13:47:06.864Z,6.55
2022-09-09T13:52:10.385Z,5.78
2022-09-09T13:54:36.776Z,6.13
2022-09-09T13:57:03.481Z,5.35
2022-09-09T13:59:54.036Z,5.22
2022-09-09T14:02:17.841Z,4.85
2022-09-09T14:04:44.777Z,4.82
2022-09-09T14:07:18.595Z,5.07
2022-09-09T14:09:46.316Z,6.38
2022-09-09T14:12:13.287Z,5.13
2022-09-09T14:14:39.775Z,3.17
2022-09-09T14:17:08.009Z,3.65
2022-09-09T14:19:34.679Z,4.40
2022-09-09T14:22:02.051Z,4.72
2022-09-09T14:24:28.795Z,3.97
2022-09-09T14:26:55.647Z,4.32
2022-09-09T14:29:22.065Z,1.80
2022-09-09T14:31:48.464Z,2.60
2022-09-09T14:34:15.171Z,3.67
2022-09-09T14:36:42.354Z,3.50
2022-09-09T14:39:09.020Z,3.40
2022-09-09T14:41:35.449Z,2.55
2022-09-09T14:44:01.990Z,3.50
2022-09-09T14:46:28.451Z,3.80
2022-09-09T14:51:28.662Z,2.90
2022-09-09T14:53:58.032Z,5.28
2022-09-09T14:56:28.155Z,4.88
2022-09-09T14:58:56.359Z,8.20
2022-09-09T15:01:23.960Z,9.27
2022-09-09T15:03:55.980Z,9.60
2022-09-09T15:06:24.044Z,7.38
2022-09-09T15:08:53.243Z,11.02
2022-09-09T15:11:21.340Z,7.75
2022-09-09T15:13:48.235Z,5.20
2022-09-09T15:16:17.186Z,5.63
2022-09-09T15:18:45.798Z,6.25
2022-09-09T15:21:17.796Z,3.88
2022-09-09T15:23:44.551Z,5.25
2022-09-09T15:26:11.579Z,4.53
2022-09-09T15:28:39.522Z,4.10
2022-09-09T15:31:15.268Z,4.32
2022-09-09T15:33:42.211Z,4.43
2022-09-09T15:36:26.985Z,3.95
2022-09-09T15:38:53.495Z,3.45
2022-09-09T15:41:21.935Z,4.95
2022-09-09T15:43:51.090Z,4.95
2022-09-09T15:46:17.537Z,4.38
2022-09-09T15:48:47.307Z,5.63
2022-09-09T15:51:40.114Z,3.38
2022-09-09T15:54:02.497Z,4.88
2022-09-09T15:56:33.628Z,2.90
2022-09-09T15:59:01.077Z,5.35
2022-09-09T16:01:28.108Z,3.17
2022-09-09T16:03:54.907Z,4.03
2022-09-09T16:06:23.957Z,3.65
2022-09-09T16:08:53.275Z,4.70
2022-09-09T16:11:32.169Z,6.30
2022-09-09T16:13:59.580Z,4.82
2022-09-09T16:16:29.234Z,5.13
2022-09-09T16:18:58.648Z,4.05
2022-09-09T16:21:30.620Z,3.53
2022-09-09T16:24:00.461Z,3.30
2022-09-09T16:26:28.554Z,3.90
2022-09-09T16:28:55.287Z,3.60
2022-09-09T16:31:24.509Z,4.10
2022-09-09T16:33:51.828Z,6.82
2022-09-09T16:36:22.254Z,6.28
2022-09-09T16:38:52.509Z,4.07
2022-09-09T16:41:19.811Z,6.40
2022-09-09T16:43:46.412Z,4.95
2022-09-09T16:46:20.345Z,4.28
2022-09-09T16:48:48.461Z,3.63
2022-09-09T16:51:24.296Z,7.28
2022-09-09T16:53:52.014Z,2.80
2022-09-09T16:56:21.854Z,5.78
2022-09-09T16:58:52.579Z,6.32
2022-09-09T17:01:19.393Z,4.00
2022-09-09T17:03:45.886Z,3.45
2022-09-09T17:06:14.393Z,4.68
2022-09-09T17:08:42.394Z,3.85
2022-09-09T17:11:19.987Z,3.08
2022-09-09T17:13:48.017Z,2.38
2022-09-09T17:16:17.122Z,3.30
2022-09-09T17:18:43.684Z,4.43
2022-09-09T17:21:17.814Z,5.05
2022-09-09T17:26:13.449Z,4.35
2022-09-09T17:28:41.798Z,4.22
2022-09-09T17:31:10.592Z,4.18
2022-09-09T17:33:42.701Z,2.95
2022-09-09T17:36:16.035Z,3.17
2022-09-09T17:38:43.574Z,6.88
2022-09-09T17:41:25.069Z,4.30
2022-09-09T17:43:52.528Z,7.07
2022-09-09T17:46:29.779Z,5.30
2022-09-09T17:49:02.363Z,4.28
2022-09-09T17:51:31.073Z,3.35
2022-09-09T17:54:22.094Z,4.20
2022-09-09T17:56:48.933Z,5.93
2022-09-09T17:59:17.024Z,4.28
2022-09-09T18:01:45.896Z,6.85
2022-09-09T18:04:15.058Z,3.38
2022-09-09T18:06:44.228Z,4.55
2022-09-09T18:09:13.642Z,5.35
2022-09-09T18:11:45.120Z,5.63
2022-09-09T18:14:16.248Z,5.15
2022-09-09T18:16:42.777Z,5.32
2022-09-09T18:19:13.640Z,7.22
2022-09-09T18:21:41.639Z,6.07
2022-09-09T18:24:10.500Z,5.57
2022-09-09T18:26:38.175Z,4.82
2022-09-09T18:29:08.195Z,4.00
2022-09-09T18:31:37.641Z,4.20
2022-09-09T18:34:06.343Z,5.80
2022-09-09T18:36:46.702Z,5.57
2022-09-09T18:39:15.601Z,5.40
2022-09-09T18:41:44.980Z,5.90
2022-09-09T18:44:21.256Z,4.50
2022-09-09T18:46:48.636Z,5.00
2022-09-09T18:49:15.844Z,3.80
2022-09-09T18:51:44.873Z,2.92
2022-09-09T18:54:20.394Z,6.15
2022-09-09T18:56:47.498Z,3.95
2022-09-09T18:59:19.505Z,4.47
2022-09-09T19:01:50.560Z,7.05
2022-09-09T19:04:18.796Z,6.55
2022-09-09T19:06:48.534Z,4.43
2022-09-09T19:09:17.938Z,5.05
2022-09-09T19:11:45.623Z,4.15
2022-09-09T19:14:14.092Z,4.85
2022-09-09T19:16:41.239Z,5.38
2022-09-09T19:19:20.693Z,5.80
2022-09-09T19:21:47.244Z,4.15
2022-09-09T19:24:22.699Z,5.22
2022-09-09T19:26:52.685Z,3.97
2022-09-09T19:29:22.384Z,6.22
2022-09-09T19:32:29.385Z,5.57
2022-09-09T19:34:37.336Z,5.40
2022-09-09T19:37:04.873Z,6.43
2022-09-09T19:39:34.319Z,7.93
2022-09-09T19:42:01.831Z,6.38
2022-09-09T19:44:28.598Z,6.63
2022-09-09T19:46:55.540Z,6.82
2022-09-09T19:49:22.109Z,7.28
2022-09-09T19:51:48.564Z,7.45
2022-09-09T19:54:15.053Z,7.85
2022-09-09T19:56:42.945Z,6.82
2022-09-09T19:59:11.720Z,5.95
2022-09-09T20:01:41.490Z,6.03
2022-09-09T20:04:08.847Z,7.10
2022-09-09T20:06:38.825Z,5.85
2022-09-09T20:09:06.958Z,6.38
2022-09-09T20:11:34.456Z,5.63
2022-09-09T20:14:01.202Z,5.60
2022-09-09T20:16:30.270Z,7.25
2022-09-09T20:18:59.446Z,3.95
2022-09-09T20:21:31.975Z,5.00
2022-09-09T20:24:04.327Z,5.57
2022-09-09T20:26:33.443Z,5.40
2022-09-09T20:29:00.866Z,5.63
2022-09-09T20:31:29.977Z,8.65
2022-09-09T20:33:57.812Z,6.78
2022-09-09T20:36:27.194Z,6.05
2022-09-09T20:38:57.858Z,4.43
2022-09-09T20:41:27.715Z,6.03
2022-09-09T20:43:55.309Z,5.68
2022-09-09T20:46:27.899Z,5.10
2022-09-09T20:49:02.644Z,5.43
2022-09-09T20:51:32.902Z,6.03
2022-09-09T20:54:05.496Z,4.82
2022-09-09T20:56:34.188Z,6.95
2022-09-09T20:59:01.499Z,7.75
2022-09-09T21:01:28.303Z,6.30
2022-09-09T21:03:55.493Z,7.47
2022-09-09T21:06:22.725Z,5.78
2022-09-09T21:08:49.810Z,7.65
2022-09-09T21:11:17.591Z,6.88
2022-09-09T21:13:44.795Z,6.70
2022-09-09T21:16:15.149Z,5.68
2022-09-09T21:18:44.393Z,5.80
2022-09-09T21:21:11.380Z,6.25
2022-09-09T21:23:37.957Z,5.05
2022-09-09T21:26:05.048Z,6.15
2022-09-09T21:28:31.635Z,6.80
2022-09-09T21:30:58.397Z,6.00
2022-09-09T21:33:28.166Z,6.72
2022-09-09T21:36:06.196Z,6.70
2022-09-09T21:38:33.494Z,6.13
2022-09-09T21:41:09.167Z,7.65
2022-09-09T21:43:35.658Z,5.55
2022-09-09T21:46:07.623Z,8.70
2022-09-09T21:48:35.227Z,6.95
2022-09-09T21:51:07.028Z,6.50
2022-09-09T21:53:34.347Z,7.80
2022-09-09T21:56:10.188Z,6.05
2022-09-09T21:58:37.469Z,5.80
2022-09-09T22:01:12.681Z,6.78
2022-09-09T22:03:39.314Z,7.53
2022-09-09T22:06:07.099Z,8.45
2022-09-09T22:08:33.598Z,6.32
2022-09-09T22:11:10.370Z,7.05
2022-09-09T22:13:38.416Z,7.18
2022-09-09T22:16:07.482Z,7.38
2022-09-09T22:18:34.688Z,5.28
2022-09-09T22:21:07.469Z,8.52
2022-09-09T22:23:34.151Z,5.82
2022-09-09T22:26:00.559Z,7.28
2022-09-09T22:28:27.045Z,7.45
2022-09-09T22:30:53.596Z,7.60
2022-09-09T22:33:20.818Z,8.68
2022-09-09T22:35:47.446Z,5.20
2022-09-09T22:38:14.058Z,6.30
2022-09-09T22:40:41.531Z,7.72
2022-09-09T22:43:19.805Z,5.97
2022-09-09T22:45:46.503Z,6.80
2022-09-09T22:48:14.750Z,5.70
2022-09-09T22:50:42.498Z,7.35
2022-09-09T22:53:13.330Z,4.93
2022-09-09T22:55:40.068Z,7.55
2022-09-09T22:58:06.719Z,4.22
2022-09-09T23:00:33.184Z,6.38
2022-09-09T23:02:59.642Z,5.32
2022-09-09T23:05:27.525Z,4.53
2022-09-09T23:07:58.339Z,5.70
2022-09-09T23:10:25.061Z,6.55
2022-09-09T23:12:51.778Z,5.20
2022-09-09T23:15:18.651Z,5.32
2022-09-09T23:17:45.067Z,7.18
2022-09-09T23:20:11.897Z,5.40
2022-09-09T23:22:40.404Z,6.72
2022-09-09T23:25:07.842Z,4.10
2022-09-09T23:27:37.279Z,5.25
2022-09-09T23:30:07.251Z,4.38
2022-09-09T23:32:33.853Z,5.30
2022-09-09T23:35:00.320Z,6.15
2022-09-09T23:37:26.788Z,5.35
2022-09-09T23:39:54.324Z,7.88
2022-09-09T23:42:20.752Z,6.57
2022-09-09T23:44:47.263Z,5.18
2022-09-09T23:47:13.840Z,7.10
2022-09-09T23:49:40.250Z,7.18
2022-09-09T23:52:07.060Z,6.13
2022-09-09T23:54:34.804Z,4.07
2022-09-09T23:57:02.959Z,5.32
2022-09-09T23:59:31.023Z,7.20
